createdAt,value
2022-08-11T00:02:26.126Z,96508.50
2022-08-11T00:04:52.470Z,96511.81
2022-08-11T00:07:19.463Z,96517.97
2022-08-11T00:09:45.772Z,96513.72
2022-08-11T00:12:12.087Z,96518.28
2022-08-11T00:14:38.402Z,96513.84
2022-08-11T00:17:04.736Z,96524.25
2022-08-11T00:20:12.714Z,96518.28
2022-08-11T00:22:17.334Z,96516.06
2022-08-11T00:24:53.560Z,96521.72
2022-08-11T00:27:21.368Z,96525.03
2022-08-11T00:29:51.814Z,96519.53
2022-08-11T00:32:18.322Z,96520.78
2022-08-11T00:34:44.632Z,96520.78
2022-08-11T00:37:10.944Z,96512.59
2022-08-11T00:39:37.286Z,96524.72
2022-08-11T00:42:03.641Z,96516.06
2022-08-11T00:44:29.974Z,96523.78
2022-08-11T00:46:56.855Z,96526.78
2022-08-11T00:49:23.168Z,96527.72
2022-08-11T00:52:03.880Z,96522.97
2022-08-11T00:54:33.128Z,96527.84
2022-08-11T00:56:59.657Z,96528.16
2022-08-11T00:59:35.104Z,96530.69
2022-08-11T01:02:02.185Z,96534.78
2022-08-11T01:04:28.502Z,96528.03
2022-08-11T01:06:54.831Z,96529.91
2022-08-11T01:09:22.271Z,96527.06
2022-08-11T01:11:56.042Z,96534.47
2022-08-11T01:14:34.246Z,96526.72
2022-08-11T01:17:00.964Z,96524.19
2022-08-11T01:19:27.287Z,96524.38
2022-08-11T01:21:53.605Z,96534.91
2022-08-11T01:24:21.444Z,96526.41
2022-08-11T01:26:47.757Z,96530.53
2022-08-11T01:29:14.068Z,96529.09
2022-08-11T01:31:40.389Z,96532.41
2022-08-11T01:34:06.708Z,96528.91
2022-08-11T01:36:33.011Z,96523.56
2022-08-11T01:38:59.323Z,96525.16
2022-08-11T01:41:25.632Z,96520.72
2022-08-11T01:43:51.940Z,96535.53
2022-08-11T01:46:18.247Z,96519.56
2022-08-11T01:48:44.566Z,96525.28
2022-08-11T01:51:14.869Z,96519.94
2022-08-11T01:53:43.659Z,96512.81
2022-08-11T01:56:09.976Z,96514.50
2022-08-11T01:58:44.106Z,96506.34
2022-08-11T02:01:10.821Z,96515.47
2022-08-11T02:03:37.181Z,96512.81
2022-08-11T02:06:03.497Z,96505.53
2022-08-11T02:08:33.084Z,96516.56
2022-08-11T02:10:59.973Z,96509.03
2022-08-11T02:13:36.654Z,96510.91
2022-08-11T02:16:03.247Z,96511.19
2022-08-11T02:18:29.553Z,96507.72
2022-08-11T02:20:55.865Z,96508.53
2022-08-11T02:23:41.090Z,96498.00
2022-08-11T02:26:08.474Z,96502.22
2022-08-11T02:28:38.896Z,96507.53
2022-08-11T02:31:15.573Z,96501.75
2022-08-11T02:33:58.905Z,96500.81
2022-08-11T02:36:25.319Z,96497.16
2022-08-11T02:38:51.659Z,96503.59
2022-08-11T02:41:17.976Z,96509.03
2022-08-11T02:43:46.077Z,96513.56
2022-08-11T02:46:18.396Z,96510.91
2022-08-11T02:48:44.973Z,96520.25
2022-08-11T02:51:11.329Z,96514.28
2022-08-11T02:53:37.645Z,96523.88
2022-08-11T02:56:03.974Z,96524.50
2022-08-11T02:58:30.294Z,96523.50
2022-08-11T03:00:56.658Z,96512.63
2022-08-11T03:03:23.021Z,96516.25
2022-08-11T03:05:49.385Z,96511.22
2022-08-11T03:08:19.243Z,96521.59
2022-08-11T03:10:45.604Z,96517.47
2022-08-11T03:13:11.967Z,96520.03
2022-08-11T03:15:42.001Z,96514.06
2022-08-11T03:18:11.005Z,96520.97
2022-08-11T03:20:38.407Z,96521.91
2022-08-11T03:23:05.679Z,96515.28
2022-08-11T03:25:46.545Z,96518.72
2022-08-11T03:28:12.917Z,96518.97
2022-08-11T03:30:39.275Z,96524.94
2022-08-11T03:33:05.655Z,96515.56
2022-08-11T03:35:32.009Z,96515.06
2022-08-11T03:37:58.398Z,96530.03
2022-08-11T03:40:24.763Z,96531.34
2022-08-11T03:42:51.140Z,96525.38
2022-08-11T03:45:18.276Z,96517.97
2022-08-11T03:47:52.298Z,96522.22
2022-08-11T03:50:21.813Z,96518.22
2022-08-11T03:52:48.171Z,96516.03
2022-08-11T03:55:14.525Z,96533.34
2022-08-11T03:57:40.885Z,96530.47
2022-08-11T04:00:07.237Z,96523.25
2022-08-11T04:02:33.606Z,96525.13
2022-08-11T04:04:59.970Z,96523.38
2022-08-11T04:07:26.515Z,96517.41
2022-08-11T04:09:52.889Z,96520.97
2022-08-11T04:12:35.420Z,96523.47
2022-08-11T04:15:03.198Z,96536.22
2022-08-11T04:17:29.561Z,96532.91
2022-08-11T04:19:55.956Z,96528.03
2022-08-11T04:22:22.326Z,96527.06
2022-08-11T04:24:50.570Z,96528.66
2022-08-11T04:27:17.121Z,96536.81
2022-08-11T04:30:04.929Z,96532.72
2022-08-11T04:32:31.707Z,96532.44
2022-08-11T04:34:58.080Z,96539.81
2022-08-11T04:37:24.454Z,96539.34
2022-08-11T04:39:50.864Z,96537.50
2022-08-11T04:42:17.237Z,96537.50
2022-08-11T04:44:43.609Z,96541.09
2022-08-11T04:47:09.960Z,96544.16
2022-08-11T04:49:36.317Z,96543.97
2022-08-11T04:52:02.677Z,96547.44
2022-08-11T04:54:29.042Z,96551.06
2022-08-11T04:56:55.410Z,96549.44
2022-08-11T04:59:21.777Z,96553.69
2022-08-11T05:01:48.187Z,96551.63
2022-08-11T05:04:14.600Z,96558.06
2022-08-11T05:06:40.962Z,96556.13
2022-08-11T05:09:07.335Z,96560.25
2022-08-11T05:11:33.706Z,96558.41
2022-08-11T05:14:00.120Z,96562.56
2022-08-11T05:16:26.486Z,96561.53
2022-08-11T05:18:52.906Z,96556.94
2022-08-11T05:21:19.261Z,96562.03
2022-08-11T05:23:45.628Z,96560.16
2022-08-11T05:26:46.974Z,96562.84
2022-08-11T05:28:58.329Z,96569.63
2022-08-11T05:31:24.713Z,96572.63
2022-08-11T05:33:51.080Z,96569.94
2022-08-11T05:36:17.453Z,96574.69
2022-08-11T05:38:43.814Z,96577.03
2022-08-11T05:41:10.177Z,96576.28
2022-08-11T05:43:36.555Z,96575.03
2022-08-11T05:46:06.226Z,96572.16
2022-08-11T05:48:34.526Z,96577.22
2022-08-11T05:51:00.950Z,96569.03
2022-08-11T05:53:45.905Z,96571.22
2022-08-11T05:56:12.825Z,96568.25
2022-08-11T05:58:42.412Z,96572.16
2022-08-11T06:01:09.416Z,96573.78
2022-08-11T06:03:35.834Z,96577.53
2022-08-11T06:06:02.214Z,96580.56
2022-08-11T06:08:28.587Z,96583.69
2022-08-11T06:10:54.944Z,96584.81
2022-08-11T06:13:21.326Z,96583.22
2022-08-11T06:15:47.688Z,96585.44
2022-08-11T06:18:14.048Z,96584.81
2022-08-11T06:20:40.429Z,96580.41
2022-08-11T06:23:06.803Z,96578.84
2022-08-11T06:25:33.191Z,96579.66
2022-08-11T06:27:59.578Z,96571.41
2022-08-11T06:30:25.974Z,96576.91
2022-08-11T06:32:52.401Z,96574.09
2022-08-11T06:35:18.767Z,96576.16
2022-08-11T06:37:45.129Z,96576.03
2022-08-11T06:40:11.517Z,96573.78
2022-08-11T06:42:38.009Z,96582.94
2022-08-11T06:45:04.508Z,96577.59
2022-08-11T06:47:30.878Z,96571.28
2022-08-11T06:49:57.249Z,96572.84
2022-08-11T06:52:35.741Z,96572.38
2022-08-11T06:55:02.554Z,96583.44
2022-08-11T06:57:30.473Z,96576.66
2022-08-11T06:59:57.486Z,96576.66
2022-08-11T07:02:29.155Z,96566.38
2022-08-11T07:04:57.376Z,96572.22
2022-08-11T07:07:23.749Z,96564.81
2022-08-11T07:09:50.117Z,96564.03
2022-08-11T07:12:16.484Z,96562.63
2022-08-11T07:14:42.864Z,96563.09
2022-08-11T07:17:09.228Z,96558.97
2022-08-11T07:19:35.606Z,96563.88
2022-08-11T07:22:04.027Z,96560.56
2022-08-11T07:24:58.646Z,96564.66
2022-08-11T07:27:16.931Z,96568.47
2022-08-11T07:29:43.305Z,96566.72
2022-08-11T07:32:09.663Z,96564.66
2022-08-11T07:34:36.034Z,96559.94
2022-08-11T07:37:02.466Z,96558.53
2022-08-11T07:39:28.928Z,96564.06
2022-08-11T07:41:55.334Z,96559.31
2022-08-11T07:44:21.736Z,96557.09
2022-08-11T07:46:48.102Z,96558.69
2022-08-11T07:49:14.470Z,96554.25
2022-08-11T07:51:40.836Z,96554.09
2022-08-11T07:54:16.503Z,96555.06
2022-08-11T07:56:54.861Z,96559.91
2022-08-11T07:59:22.047Z,96558.19
2022-08-11T08:02:08.435Z,96553.63
2022-08-11T08:04:34.824Z,96556.78
2022-08-11T08:07:01.192Z,96558.53
2022-08-11T08:09:27.550Z,96560.25
2022-08-11T08:11:53.920Z,96560.25
2022-08-11T08:14:20.288Z,96560.88
2022-08-11T08:16:46.651Z,96549.03
2022-08-11T08:19:13.005Z,96551.72
2022-08-11T08:21:39.377Z,96552.84
2022-08-11T08:24:05.745Z,96558.53
2022-08-11T08:26:32.113Z,96552.66
2022-08-11T08:28:58.490Z,96549.03
2022-08-11T08:31:24.856Z,96548.56
2022-08-11T08:33:51.213Z,96545.25
2022-08-11T08:36:17.571Z,96544.28
2022-08-11T08:38:43.957Z,96543.84
2022-08-11T08:41:10.329Z,96541.16
2022-08-11T08:43:48.515Z,96546.66
2022-08-11T08:46:15.880Z,96541.94
2022-08-11T08:48:42.259Z,96534.19
2022-08-11T08:51:08.619Z,96539.72
2022-08-11T08:53:34.974Z,96540.66
2022-08-11T08:56:01.346Z,96537.53
2022-08-11T08:58:27.695Z,96537.97
2022-08-11T09:00:54.123Z,96537.00
2022-08-11T09:03:41.073Z,96533.09
2022-08-11T09:06:06.884Z,96532.28
2022-08-11T09:08:33.244Z,96535.00
2022-08-11T09:10:59.605Z,96539.25
2022-08-11T09:13:25.976Z,96537.97
2022-08-11T09:15:56.255Z,96527.88
2022-08-11T09:18:22.923Z,96519.50
2022-08-11T09:20:49.292Z,96529.13
2022-08-11T09:26:02.022Z,96528.66
2022-08-11T09:28:28.374Z,96517.47
2022-08-11T09:30:54.726Z,96524.88
2022-08-11T09:33:21.098Z,96527.06
2022-08-11T09:35:47.480Z,96514.16
2022-08-11T09:38:13.837Z,96519.84
2022-08-11T09:40:40.203Z,96519.50
2022-08-11T09:43:06.936Z,96513.03
2022-08-11T09:45:39.951Z,96508.78
2022-08-11T09:48:06.711Z,96518.06
2022-08-11T09:50:33.072Z,96501.38
2022-08-11T09:53:36.827Z,96509.56
2022-08-11T09:55:46.640Z,96498.50
2022-08-11T09:58:13.018Z,96493.63
2022-08-11T10:00:59.394Z,96498.06
2022-08-11T10:03:25.803Z,96487.31
2022-08-11T10:05:52.164Z,96490.00
2022-08-11T10:08:18.539Z,96484.16
2022-08-11T10:10:44.906Z,96495.03
2022-08-11T10:14:30.090Z,96485.72
2022-08-11T10:16:00.058Z,96480.34
2022-08-11T10:18:41.849Z,96482.72
2022-08-11T10:21:08.205Z,96477.03
2022-08-11T10:23:34.561Z,96477.34
2022-08-11T10:26:20.919Z,96470.75
2022-08-11T10:29:11.669Z,96475.97
2022-08-11T10:31:45.141Z,96469.63
2022-08-11T10:34:19.979Z,96461.25
2022-08-11T10:36:49.170Z,96460.50
2022-08-11T10:39:15.555Z,96458.25
2022-08-11T10:42:07.373Z,96458.25
2022-08-11T10:44:30.892Z,96452.88
2022-08-11T10:46:57.255Z,96452.88
2022-08-11T10:49:23.628Z,96448.66
2022-08-11T10:51:52.149Z,96448.03
2022-08-11T10:54:20.359Z,96446.47
2022-08-11T10:56:46.730Z,96443.78
2022-08-11T10:59:13.103Z,96445.34
2022-08-11T11:01:41.974Z,96446.16
2022-08-11T11:04:08.371Z,96443.78
2022-08-11T11:06:34.731Z,96437.91
2022-08-11T11:09:04.134Z,96438.41
2022-08-11T11:11:31.059Z,96431.13
2022-08-11T11:13:57.458Z,96426.56
2022-08-11T11:16:24.867Z,96422.31
2022-08-11T11:19:00.846Z,96415.34
2022-08-11T11:21:27.646Z,96415.84
2022-08-11T11:23:54.012Z,96411.59
2022-08-11T11:26:27.434Z,96411.59
2022-08-11T11:28:54.293Z,96415.03
2022-08-11T11:31:21.259Z,96404.59
2022-08-11T11:34:06.146Z,96413.94
2022-08-11T11:36:33.965Z,96410.94
2022-08-11T11:39:00.333Z,96408.59
2022-08-11T11:41:26.683Z,96404.00
2022-08-11T11:43:53.035Z,96397.69
2022-08-11T11:46:19.392Z,96399.25
2022-08-11T11:48:45.741Z,96391.69
2022-08-11T11:51:12.107Z,96394.66
2022-08-11T11:53:38.469Z,96403.22
2022-08-11T11:56:04.821Z,96391.69
2022-08-11T11:58:31.190Z,96394.06
2022-08-11T12:00:57.556Z,96387.91
2022-08-11T12:03:24.005Z,96385.53
2022-08-11T12:05:50.394Z,96384.78
2022-08-11T12:08:16.752Z,96382.09
2022-08-11T12:10:43.121Z,96378.75
2022-08-11T12:13:09.487Z,96374.94
2022-08-11T12:16:34.483Z,96383.31
2022-08-11T12:18:23.249Z,96383.00
2022-08-11T12:20:49.622Z,96380.31
2022-08-11T12:23:15.989Z,96375.59
2022-08-11T12:25:42.353Z,96370.72
2022-08-11T12:28:08.718Z,96372.91
2022-08-11T12:30:35.086Z,96368.03
2022-08-11T12:33:01.535Z,96362.66
2022-08-11T12:35:27.910Z,96360.41
2022-08-11T12:37:58.775Z,96355.06
2022-08-11T12:40:48.816Z,96353.50
2022-08-11T12:43:21.557Z,96350.81
2022-08-11T12:45:48.713Z,96352.84
2022-08-11T12:49:00.641Z,96354.44
2022-08-11T12:51:01.412Z,96343.69
2022-08-11T12:53:27.777Z,96343.69
2022-08-11T12:56:07.418Z,96338.34
2022-08-11T12:58:34.052Z,96337.22
2022-08-11T13:01:00.522Z,96325.38
2022-08-11T13:03:26.957Z,96322.34
2022-08-11T13:05:53.317Z,96317.00
2022-08-11T13:08:19.681Z,96310.38
2022-08-11T13:10:46.046Z,96307.38
2022-08-11T13:13:52.817Z,96307.53
2022-08-11T13:15:58.752Z,96304.84
2022-08-11T13:18:25.112Z,96297.88
2022-08-11T13:20:51.478Z,96299.47
2022-08-11T13:23:17.849Z,96297.56
2022-08-11T13:25:44.201Z,96297.22
2022-08-11T13:28:10.566Z,96288.09
2022-08-11T13:30:40.374Z,96291.88
2022-08-11T13:33:08.460Z,96280.03
2022-08-11T13:35:34.825Z,96285.06
2022-08-11T13:38:18.533Z,96280.47
2022-08-11T13:40:55.805Z,96282.06
2022-08-11T13:43:22.536Z,96272.91
2022-08-11T13:45:48.902Z,96269.09
2022-08-11T13:48:15.262Z,96268.00
2022-08-11T13:50:41.638Z,96262.16
2022-08-11T13:53:08.016Z,96263.06
2022-08-11T13:55:51.489Z,96260.84
2022-08-11T13:58:39.919Z,96255.03
2022-08-11T14:02:03.111Z,96245.53
2022-08-11T14:04:30.017Z,96248.09
2022-08-11T14:06:37.967Z,96248.56
2022-08-11T14:09:04.323Z,96248.56
2022-08-11T14:12:21.692Z,96245.97
2022-08-11T14:14:17.026Z,96237.81
2022-08-11T14:16:43.398Z,96237.94
2022-08-11T14:19:09.753Z,96234.00
2022-08-11T14:21:36.128Z,96230.69
2022-08-11T14:24:02.493Z,96233.22
2022-08-11T14:26:28.877Z,96235.56
2022-08-11T14:28:55.263Z,96233.34
2022-08-11T14:31:21.631Z,96231.81
2022-08-11T14:34:00.913Z,96230.22
2022-08-11T14:36:28.304Z,96226.44
2022-08-11T14:38:54.668Z,96224.19
2022-08-11T14:41:21.026Z,96221.06
2022-08-11T14:44:13.192Z,96222.63
2022-08-11T14:46:33.742Z,96212.69
2022-08-11T14:49:00.121Z,96207.00
2022-08-11T14:51:26.477Z,96212.22
2022-08-11T14:53:58.750Z,96207.00
2022-08-11T14:56:25.395Z,96210.09
2022-08-11T14:58:51.768Z,96210.44
2022-08-11T15:01:18.243Z,96206.53
2022-08-11T15:04:34.099Z,96199.59
2022-08-11T15:06:31.009Z,96201.94
2022-08-11T15:08:57.388Z,96201.16
2022-08-11T15:11:23.749Z,96197.25
2022-08-11T15:13:50.117Z,96204.97
2022-08-11T15:16:16.480Z,96203.38
2022-08-11T15:18:42.842Z,96197.34
2022-08-11T15:21:09.209Z,96190.28
2022-08-11T15:23:35.569Z,96186.50
2022-08-11T15:26:01.926Z,96187.28
2022-08-11T15:28:28.275Z,96188.84
2022-08-11T15:30:54.666Z,96183.81
2022-08-11T15:33:21.029Z,96191.22
2022-08-11T15:35:47.382Z,96181.13
2022-08-11T15:38:13.737Z,96188.72
2022-08-11T15:40:40.159Z,96181.00
2022-08-11T15:43:12.724Z,96177.19
2022-08-11T15:45:39.305Z,96175.16
2022-08-11T15:48:07.972Z,96174.06
2022-08-11T15:50:36.984Z,96174.06
2022-08-11T15:53:03.345Z,96174.72
2022-08-11T15:55:29.707Z,96166.34
2022-08-11T15:57:56.087Z,96171.72
2022-08-11T16:00:24.553Z,96164.00
2022-08-11T16:02:50.999Z,96162.41
2022-08-11T16:05:45.033Z,96163.19
2022-08-11T16:08:03.701Z,96160.53
2022-08-11T16:10:30.062Z,96160.84
2022-08-11T16:13:00.177Z,96159.28
2022-08-11T16:15:26.542Z,96155.47
2022-08-11T16:17:52.918Z,96158.63
2022-08-11T16:20:19.283Z,96151.69
2022-08-11T16:22:55.140Z,96153.94
2022-08-11T16:25:58.084Z,96157.03
2022-08-11T16:28:14.622Z,96145.22
2022-08-11T16:30:41.059Z,96147.91
2022-08-11T16:33:48.104Z,96143.28
2022-08-11T16:35:53.762Z,96144.41
2022-08-11T16:38:20.140Z,96134.16
2022-08-11T16:40:46.514Z,96136.94
2022-08-11T16:43:12.888Z,96128.78
2022-08-11T16:45:39.254Z,96125.31
2022-08-11T16:48:32.503Z,96126.44
2022-08-11T16:50:51.964Z,96128.47
2022-08-11T16:53:18.318Z,96133.03
2022-08-11T16:55:52.736Z,96134.91
2022-08-11T16:58:19.364Z,96123.53
2022-08-11T17:00:46.092Z,96127.34
2022-08-11T17:03:12.517Z,96129.88
2022-08-11T17:05:54.208Z,96120.84
2022-08-11T17:08:22.764Z,96131.13
2022-08-11T17:10:54.790Z,96122.63
2022-08-11T17:13:24.054Z,96126.09
2022-08-11T17:15:50.927Z,96124.84
2022-08-11T17:18:17.442Z,96126.88
2022-08-11T17:20:44.398Z,96135.38
2022-08-11T17:23:13.318Z,96134.91
2022-08-11T17:26:03.717Z,96139.88
2022-08-11T17:28:26.266Z,96125.31
2022-08-11T17:30:52.633Z,96128.34
2022-08-11T17:33:18.983Z,96135.06
2022-08-11T17:35:45.342Z,96134.91
2022-08-11T17:38:11.715Z,96127.53
2022-08-11T17:40:38.085Z,96128.50
2022-08-11T17:43:04.472Z,96130.22
2022-08-11T17:45:30.843Z,96131.66
2022-08-11T17:47:57.208Z,96129.31
2022-08-11T17:50:23.564Z,96125.25
2022-08-11T17:52:49.940Z,96125.63
2022-08-11T17:55:16.309Z,96126.91
2022-08-11T17:58:02.669Z,96135.84
2022-08-11T18:00:29.028Z,96129.69
2022-08-11T18:02:55.391Z,96136.38
2022-08-11T18:05:21.746Z,96127.19
2022-08-11T18:07:48.117Z,96132.56
2022-08-11T18:10:14.486Z,96128.78
2022-08-11T18:12:40.831Z,96142.53
2022-08-11T18:15:07.209Z,96136.38
2022-08-11T18:17:33.659Z,96142.53
2022-08-11T18:20:00.114Z,96146.78
2022-08-11T18:25:10.453Z,96145.00
2022-08-11T18:27:36.825Z,96150.63
2022-08-11T18:30:03.199Z,96151.06
2022-08-11T18:32:46.084Z,96149.69
2022-08-11T18:35:15.816Z,96155.47
2022-08-11T18:37:42.358Z,96146.97
2022-08-11T18:40:08.833Z,96140.03
2022-08-11T18:42:35.195Z,96150.91
2022-08-11T18:45:01.549Z,96152.09
2022-08-11T18:47:28.916Z,96152.59
2022-08-11T18:50:02.569Z,96161.88
2022-08-11T18:52:31.440Z,96157.31
2022-08-11T18:54:57.805Z,96155.72
2022-08-11T18:57:24.200Z,96159.16
2022-08-11T18:59:50.588Z,96166.44
2022-08-11T19:02:16.959Z,96168.94
2022-08-11T19:04:43.326Z,96172.75
2022-08-11T19:07:09.698Z,96178.88
2022-08-11T19:09:36.064Z,96181.00
2022-08-11T19:12:02.429Z,96175.63
2022-08-11T19:14:28.825Z,96178.00
2022-08-11T19:16:55.209Z,96180.53
2022-08-11T19:19:21.573Z,96181.66
2022-08-11T19:21:47.937Z,96182.56
2022-08-11T19:24:14.323Z,96184.81
2022-08-11T19:26:40.688Z,96187.28
2022-08-11T19:29:07.086Z,96182.38
2022-08-11T19:31:33.451Z,96185.47
2022-08-11T19:34:10.023Z,96186.38
2022-08-11T19:36:37.192Z,96186.38
2022-08-11T19:39:03.563Z,96203.38
2022-08-11T19:41:56.426Z,96194.88
2022-08-11T19:44:16.769Z,96195.69
2022-08-11T19:46:43.173Z,96192.81
2022-08-11T19:49:09.531Z,96202.22
2022-08-11T19:51:35.929Z,96196.84
2022-08-11T19:54:02.370Z,96193.72
2022-08-11T19:56:28.734Z,96208.91
2022-08-11T19:58:55.092Z,96205.81
2022-08-11T20:01:21.536Z,96209.81
2022-08-11T20:03:47.911Z,96212.34
2022-08-11T20:06:14.289Z,96206.97
2022-08-11T20:08:40.656Z,96213.34
2022-08-11T20:11:07.029Z,96219.63
2022-08-11T20:13:33.386Z,96230.38
2022-08-11T20:16:00.764Z,96234.13
2022-08-11T20:18:27.134Z,96227.34
2022-08-11T20:20:53.502Z,96225.31
2022-08-11T20:23:19.955Z,96220.69
2022-08-11T20:25:46.482Z,96233.31
2022-08-11T20:28:12.856Z,96232.84
2022-08-11T20:30:39.209Z,96237.28
2022-08-11T20:33:05.557Z,96239.50
2022-08-11T20:35:31.931Z,96243.97
2022-08-11T20:37:58.285Z,96246.66
2022-08-11T20:40:24.642Z,96250.91
2022-08-11T20:42:50.993Z,96254.94
2022-08-11T20:45:17.344Z,96257.19
2022-08-11T20:47:58.913Z,96263.22
2022-08-11T20:50:26.989Z,96254.03
2022-08-11T20:52:55.115Z,96261.63
2022-08-11T20:55:26.147Z,96245.91
2022-08-11T20:58:08.172Z,96251.69
2022-08-11T21:00:41.580Z,96253.06
2022-08-11T21:03:10.466Z,96249.06
2022-08-11T21:06:10.238Z,96253.00
2022-08-11T21:08:25.416Z,96251.19
2022-08-11T21:10:52.349Z,96247.13
2022-08-11T21:13:25.250Z,96255.94
2022-08-11T21:16:03.097Z,96255.47
2022-08-11T21:18:29.847Z,96258.47
2022-08-11T21:20:56.219Z,96257.84
2022-08-11T21:23:24.101Z,96263.84
2022-08-11T21:25:50.891Z,96256.13
2022-08-11T21:28:17.276Z,96256.63
2022-08-11T21:30:43.629Z,96264.06
2022-08-11T21:33:09.999Z,96265.09
2022-08-11T21:35:36.361Z,96252.34
2022-08-11T21:38:11.494Z,96256.34
2022-08-11T21:40:37.863Z,96256.16
2022-08-11T21:43:04.224Z,96257.28
2022-08-11T21:45:30.598Z,96258.84
2022-08-11T21:48:01.003Z,96264.19
2022-08-11T21:50:27.849Z,96257.28
2022-08-11T21:52:54.244Z,96258.56
2022-08-11T21:55:21.405Z,96257.28
2022-08-11T21:57:50.321Z,96258.69
2022-08-11T22:00:17.013Z,96255.44
2022-08-11T22:02:44.175Z,96259.88
2022-08-11T22:05:18.603Z,96271.25
2022-08-11T22:07:44.973Z,96262.22
2022-08-11T22:10:37.663Z,96263.94
2022-08-11T22:12:57.670Z,96261.25
2022-08-11T22:15:24.037Z,96266.66
2022-08-11T22:17:53.628Z,96264.94
2022-08-11T22:20:22.342Z,96260.97
2022-08-11T22:22:53.122Z,96265.25
2022-08-11T22:25:20.001Z,96264.13
2022-08-11T22:27:47.086Z,96259.59
2022-08-11T22:30:13.457Z,96263.22
2022-08-11T22:32:39.934Z,96251.53
2022-08-11T22:35:06.444Z,96251.75
2022-08-11T22:37:32.792Z,96253.91
2022-08-11T22:40:01.883Z,96260.44
2022-08-11T22:42:33.281Z,96256.31
2022-08-11T22:45:00.397Z,96255.50
2022-08-11T22:47:27.395Z,96250.63
2022-08-11T22:50:02.758Z,96256.47
2022-08-11T22:52:29.130Z,96258.03
2022-08-11T22:54:55.481Z,96255.00
2022-08-11T22:57:21.840Z,96257.75
2022-08-11T22:59:48.208Z,96250.47
2022-08-11T23:02:14.578Z,96262.47
2022-08-11T23:04:40.941Z,96258.53
2022-08-11T23:07:07.291Z,96256.63
2022-08-11T23:09:33.658Z,96270.84
2022-08-11T23:12:06.694Z,96268.91
2022-08-11T23:14:36.428Z,96269.41
2022-08-11T23:17:02.798Z,96274.50
2022-08-11T23:20:07.021Z,96282.97
2022-08-11T23:22:15.500Z,96280.13
2022-08-11T23:24:42.050Z,96279.75
2022-08-11T23:27:08.407Z,96273.78
2022-08-11T23:29:34.766Z,96280.75
2022-08-11T23:32:01.120Z,96279.78
2022-08-11T23:34:41.490Z,96272.53
2022-08-11T23:37:13.822Z,96269.66
2022-08-11T23:39:40.255Z,96270.03
2022-08-11T23:42:06.689Z,96264.03
2022-08-11T23:44:33.058Z,96268.09
2022-08-11T23:46:59.420Z,96271.59
2022-08-11T23:49:25.781Z,96266.44
2022-08-11T23:51:52.140Z,96273.84
2022-08-11T23:54:18.496Z,96269.88
2022-08-11T23:56:44.859Z,96261.81
2022-08-11T23:59:11.228Z,96266.44
